Latest Weather Observations for Jandakot

IDW60801

Issued at 9:35 am WST Wednesday 23 July 2014 (issued every 30 minutes, with the page automatically refreshed every 10 minutes)

About weather observations | Map of weather stations | Latest weather observations for WA | Other Formats
Station Details ID: 009172 Name: JANDAKOT AERO Lat: -32.10 Lon: 115.88 Height: 30.0 m
Data from the previous 72 hours. | See also: Recent months at Jandakot
Date/Time
WST
Temp
°C
App
Temp
°C
Dew
Point
Rel
Hum
%
Delta-T
°C
Wind Press
QNH
hPa
Press
MSL
hPa
Rain
since 9 am
mm
Dir
 
Spd
km/h
Gust
km/h
Spd
kts
Gust
kts
23/09:30am 11.2 8.6 9.2 87 1.0 N 13 17 7 9 1023.6 - 0.0
23/09:00am 10.3 7.3 9.1 92 0.6 NNE 15 19 8 10 1023.0 1023.0 5.6
23/08:30am 9.7 7.4 9.1 96 0.3 NE 11 15 6 8 1022.8 - 5.6
23/08:00am 9.4 8.0 9.0 97 0.2 NNE 6 7 3 4 1022.9 - 5.6
23/07:30am 9.3 8.6 8.7 96 0.3 N 2 7 1 4 1022.8 - 5.6
23/07:00am 9.5 8.1 8.9 96 0.3 NW 6 7 3 4 1022.5 - 5.6
23/06:30am 8.9 7.8 8.5 97 0.2 NW 4 7 2 4 1022.0 - 5.6
23/06:00am 8.8 8.4 8.4 97 0.2 CALM 0 0 0 0 1021.8 1021.8 5.6
23/05:30am 8.8 8.4 8.4 97 0.2 CALM 0 0 0 0 1021.7 - 5.6
23/05:00am 8.8 8.4 8.4 97 0.2 CALM 0 0 0 0 1021.5 - 5.6
23/04:30am 8.6 7.0 8.2 97 0.2 E 6 7 3 4 1021.4 - 5.6
23/04:00am 8.7 6.9 8.1 96 0.3 N 7 9 4 5 1021.6 - 5.6
23/03:30am 8.4 7.2 8.0 97 0.2 ESE 4 7 2 4 1021.6 - 5.6
23/03:00am 9.0 8.7 8.6 97 0.2 CALM 0 0 0 0 1021.8 1021.8 5.6
23/02:30am 9.8 9.6 9.0 95 0.4 CALM 0 4 0 2 1022.0 - 5.6
23/02:00am 10.1 8.2 8.9 92 0.6 S 9 13 5 7 1021.9 - 5.6
23/01:30am 10.0 8.4 8.8 92 0.6 S 7 11 4 6 1021.7 - 5.6
23/01:00am 10.2 10.1 9.4 95 0.4 CALM 0 0 0 0 1021.8 - 5.6
23/12:30am 10.3 8.8 9.3 93 0.5 S 7 9 4 5 1021.8 - 5.6
23/12:00am 10.1 8.8 9.3 95 0.4 SSW 6 7 3 4 1021.7 1021.7 5.6
 
Date/Time
WST
Temp
°C
App
Temp
°C
Dew
Point
Rel
Hum
%
Delta-T
°C
Wind Press
QNH
hPa
Press
MSL
hPa
Rain
since 9 am
mm
Dir
 
Spd
km/h
Gust
km/h
Spd
kts
Gust
kts
22/11:30pm 10.1 8.8 9.3 95 0.4 S 6 7 3 4 1021.8 - 5.6
22/11:00pm 9.9 8.3 8.9 93 0.5 S 7 7 4 4 1021.8 - 5.4
22/10:30pm 10.1 8.8 9.1 93 0.5 S 6 9 3 5 1021.7 - 5.4
22/10:00pm 10.9 9.7 9.5 91 0.7 S 6 7 3 4 1021.6 - 5.4
22/09:30pm 11.2 9.1 9.8 91 0.7 SW 11 15 6 8 1021.7 - 5.4
22/09:00pm 11.4 8.5 9.8 90 0.8 SW 15 24 8 13 1021.5 1021.5 5.2
22/08:30pm 11.3 8.4 9.7 90 0.8 SSW 15 22 8 12 1021.3 - 5.0
22/08:19pm 11.4 8.2 10.0 91 0.7 SSW 17 28 9 15 1021.3 - 5.0
22/08:00pm 11.6 8.6 10.6 94 0.5 WSW 17 24 9 13 1021.3 - 4.8
22/07:33pm 11.5 10.0 10.5 94 0.5 SW 9 11 5 6 1020.9 - 4.8
22/07:30pm 11.6 10.4 10.4 92 0.6 SSW 7 11 4 6 1020.9 - 4.6
22/07:00pm 11.7 9.4 10.3 91 0.7 SSW 13 20 7 11 1020.5 - 4.2
22/06:30pm 12.0 10.8 10.4 90 0.8 WSW 7 17 4 9 1020.2 - 3.6
22/06:00pm 11.8 10.3 10.4 91 0.7 WSW 9 20 5 11 1019.9 1019.9 3.4
22/05:30pm 11.7 9.3 10.1 90 0.8 WSW 13 17 7 9 1019.5 - 3.4
22/05:00pm 11.9 10.4 10.5 91 0.7 SW 9 15 5 8 1019.1 - 3.2
22/04:46pm 12.0 9.0 10.6 91 0.7 WSW 17 22 9 12 1019.0 - 3.2
22/04:30pm 12.5 10.3 10.8 89 0.9 WSW 13 20 7 11 1019.0 - 3.0
22/04:00pm 12.8 9.1 10.3 85 1.3 SSW 20 32 11 17 1018.5 - 2.4
22/03:30pm 13.1 9.8 9.4 78 1.9 SW 17 26 9 14 1018.3 - 2.4
22/03:00pm 12.7 8.2 10.2 85 1.3 SW 24 41 13 22 1018.3 1018.3 2.2
22/02:30pm 13.9 10.3 9.8 76 2.1 SSW 19 24 10 13 1017.7 - 1.8
22/02:00pm 13.5 11.4 11.0 85 1.3 SW 13 20 7 11 1017.5 - 1.8
22/01:40pm 13.1 11.0 11.0 87 1.1 WSW 13 19 7 10 1017.6 - 1.8
22/01:30pm 12.1 8.0 10.1 87 1.0 W 22 28 12 15 1017.6 - 1.4
22/01:28pm 12.1 7.9 9.9 86 1.1 WNW 22 28 12 15 1017.6 - 1.4
22/01:00pm 13.8 10.8 9.3 74 2.3 W 15 20 8 11 1017.4 - 0.6
22/12:30pm 13.2 11.6 8.8 74 2.2 S 7 9 4 5 1017.7 - 0.6
22/12:00pm 13.0 11.8 9.7 80 1.7 W 6 11 3 6 1018.0 1018.0 0.6
22/11:45am 12.4 10.8 10.1 86 1.2 WNW 9 11 5 6 1018.3 - 0.6
22/11:32am 11.6 8.6 9.4 86 1.1 WNW 15 22 8 12 1018.4 - 0.4
22/11:30am 11.6 8.3 9.6 87 1.0 WNW 17 22 9 12 1018.4 - 0.4
22/11:00am 13.1 11.2 8.9 75 2.1 W 9 15 5 8 1018.5 - 0.0
22/10:30am 12.9 11.8 8.5 74 2.2 NW 4 9 2 5 1018.4 - 0.0
22/10:00am 11.9 10.1 9.3 84 1.3 NW 9 13 5 7 1018.3 - 0.0
22/09:30am 11.1 10.2 9.1 87 1.0 NNW 4 7 2 4 1018.0 - 0.0
22/09:00am 10.7 9.8 9.3 91 0.7 NE 4 7 2 4 1017.5 1017.4 30.8
22/08:30am 9.7 9.5 9.1 96 0.3 CALM 0 0 0 0 1017.2 - 30.8
22/08:00am 9.0 8.7 8.6 97 0.2 CALM 0 0 0 0 1016.7 - 30.8
22/07:30am 8.9 6.9 8.5 97 0.2 WSW 9 11 5 6 1016.8 - 30.6
22/07:00am 8.6 6.8 8.0 96 0.3 NE 7 9 4 5 1015.8 - 30.0
22/06:30am 9.3 8.3 8.9 97 0.2 SSE 4 7 2 4 1015.8 - 30.0
22/06:15am 9.5 7.9 8.9 96 0.3 SW 7 11 4 6 1015.8 - 30.0
22/06:04am 9.5 7.6 9.1 97 0.2 WSW 9 9 5 5 1015.4 - 29.8
22/06:00am 9.5 7.6 9.1 97 0.2 W 9 13 5 7 1015.4 1015.3 29.6
22/05:30am 9.4 7.4 8.8 96 0.3 E 9 11 5 6 1014.4 - 29.2
22/05:08am 9.8 8.3 9.2 96 0.3 S 7 13 4 7 1014.6 - 29.2
22/05:00am 9.8 8.3 9.2 96 0.3 S 7 15 4 8 1014.7 - 29.2
22/04:35am 10.1 7.6 9.7 97 0.2 WNW 13 17 7 9 1014.7 - 28.4
22/04:30am 10.0 6.8 9.8 99 0.1 WNW 17 22 9 12 1014.7 - 28.2
22/04:00am 9.7 8.4 9.3 97 0.2 ENE 6 7 3 4 1013.5 - 26.6
22/03:30am 10.0 9.6 9.6 97 0.2 ESE 2 7 1 4 1013.6 - 26.6
22/03:00am 10.0 9.9 9.6 97 0.2 CALM 0 4 0 2 1013.3 1013.2 26.4
22/02:30am 10.1 9.7 9.7 97 0.2 SSE 2 7 1 4 1013.0 - 25.8
22/02:29am 10.2 9.8 9.8 97 0.2 SSE 2 7 1 4 1013.0 - 25.8
22/02:22am 10.2 9.1 9.8 97 0.2 SE 6 7 3 4 1013.0 - 25.8
22/02:12am 10.3 8.9 9.7 96 0.3 ESE 7 11 4 6 1013.2 - 25.4
22/02:09am 10.2 8.8 9.6 96 0.3 E 7 13 4 7 1013.2 - 25.0
22/02:00am 10.2 8.1 9.6 96 0.3 ESE 11 15 6 8 1012.8 - 23.8
22/01:30am 10.5 10.1 9.7 95 0.4 S 2 7 1 4 1013.1 - 23.8
22/01:27am 10.5 9.7 9.7 95 0.4 S 4 9 2 5 1013.2 - 23.6
22/01:00am 10.7 7.8 9.7 93 0.5 W 15 20 8 11 1013.4 - 22.6
22/12:56am 10.7 7.4 9.7 93 0.5 W 17 22 9 12 1013.3 - 22.2
22/12:30am 11.3 10.8 10.9 97 0.2 NNE 4 6 2 3 1012.6 - 21.0
22/12:00am 11.3 9.8 10.7 96 0.3 NE 9 11 5 6 1012.6 1012.5 21.0
 
Date/Time
WST
Temp
°C
App
Temp
°C
Dew
Point
Rel
Hum
%
Delta-T
°C
Wind Press
QNH
hPa
Press
MSL
hPa
Rain
since 9 am
mm
Dir
 
Spd
km/h
Gust
km/h
Spd
kts
Gust
kts
21/11:30pm 11.6 11.9 10.8 95 0.4 CALM 0 0 0 0 1013.2 - 21.0
21/11:00pm 11.6 9.7 10.6 94 0.5 W 11 19 6 10 1013.5 - 20.6
21/10:53pm 11.6 8.5 10.4 92 0.6 W 17 24 9 13 1013.5 - 20.6
21/10:30pm 12.6 11.2 12.2 97 0.2 NNE 11 15 6 8 1013.5 - 17.6
21/10:12pm 12.6 10.8 12.2 97 0.2 NNE 13 17 7 9 1013.3 - 16.6
21/10:00pm 12.7 11.3 12.3 97 0.2 N 11 15 6 8 1013.7 - 16.6
21/09:30pm 12.8 11.0 12.1 95 0.4 NNE 13 17 7 9 1013.8 - 16.2
21/09:00pm 12.8 12.2 11.7 93 0.6 NNE 6 9 3 5 1013.8 1013.7 16.0
21/08:30pm 13.0 12.5 11.9 93 0.6 SW 6 7 3 4 1013.9 - 15.6
21/08:16pm 13.0 12.5 11.9 93 0.6 SSW 6 7 3 4 1013.9 - 15.2
21/08:00pm 13.1 12.4 12.0 93 0.6 SSW 7 11 4 6 1013.8 - 15.2
21/07:30pm 13.3 10.2 12.2 93 0.6 W 20 28 11 15 1014.0 - 14.2
21/07:08pm 13.2 10.6 11.9 92 0.7 NNW 17 26 9 14 1013.7 - 12.8
21/07:04pm 13.2 10.6 11.9 92 0.7 N 17 22 9 12 1013.8 - 12.6
21/07:02pm 13.1 10.8 11.8 92 0.7 N 15 22 8 12 1013.7 - 12.4
21/07:00pm 13.2 11.0 12.1 93 0.6 N 15 20 8 11 1013.5 - 12.4
21/06:47pm 13.7 10.0 12.6 93 0.6 WNW 24 33 13 18 1013.5 - 11.4
21/06:30pm 14.0 12.3 12.5 91 0.8 NNW 13 20 7 11 1013.2 - 7.6
21/06:29pm 14.1 12.4 12.4 89 0.9 NNW 13 20 7 11 1013.2 - 7.6
21/06:00pm 14.1 11.6 12.3 89 1.0 N 17 24 9 13 1013.0 1012.9 5.4
21/05:30pm 14.2 13.0 12.9 92 0.7 N 11 15 6 8 1012.9 - 5.4
21/05:00pm 14.8 13.0 13.4 91 0.8 NNE 15 20 8 11 1013.3 - 5.2
21/04:30pm 15.2 12.9 13.0 87 1.2 N 17 20 9 11 1013.3 - 5.2
21/04:00pm 15.5 13.0 13.5 88 1.1 N 19 22 10 12 1013.4 - 5.2
21/03:30pm 15.0 12.5 13.4 90 0.9 N 19 24 10 13 1013.7 - 5.2
21/03:11pm 14.5 12.1 13.8 96 0.4 NNE 19 24 10 13 1013.8 - 5.2
21/03:09pm 14.5 12.1 13.8 96 0.4 NNE 19 24 10 13 1013.8 - 5.2
21/03:00pm 14.3 11.6 13.6 96 0.4 NNE 20 26 11 14 1013.9 1013.8 5.2
21/02:54pm 14.2 11.7 13.5 96 0.4 N 19 26 10 14 1013.9 - 5.2
21/02:46pm 14.4 11.9 13.5 94 0.5 N 19 22 10 12 1014.0 - 5.0
21/02:36pm 14.6 12.2 13.7 94 0.5 N 19 24 10 13 1014.0 - 5.0
21/02:30pm 14.4 12.3 13.5 94 0.5 N 17 22 9 12 1014.1 - 5.0
21/02:18pm 13.9 12.4 13.0 94 0.5 N 13 19 7 10 1014.2 - 5.0
21/02:05pm 13.8 11.9 12.9 94 0.5 N 15 22 8 12 1014.6 - 4.6
21/02:01pm 13.9 11.5 12.8 93 0.6 N 17 22 9 12 1014.7 - 4.4
21/02:00pm 13.7 11.3 12.8 94 0.5 N 17 22 9 12 1014.7 - 4.2
21/01:51pm 14.1 11.8 13.0 93 0.6 N 17 22 9 12 1014.5 - 3.4
21/01:35pm 13.6 10.7 12.3 92 0.7 N 19 24 10 13 1014.7 - 3.4
21/01:30pm 13.5 10.6 12.2 92 0.7 N 19 28 10 15 1014.9 - 3.4
21/01:00pm 14.0 11.8 13.3 96 0.4 NNW 17 24 9 13 1015.6 - 2.4
21/12:30pm 13.7 12.9 13.0 96 0.4 NNW 9 13 5 7 1015.9 - 1.6
21/12:09pm 13.6 11.2 12.5 93 0.6 N 17 24 9 13 1016.3 - 1.0
21/12:06pm 13.6 11.2 12.5 93 0.6 N 17 26 9 14 1016.3 - 0.6
21/12:00pm 13.6 10.7 12.3 92 0.7 N 19 28 10 15 1016.2 1016.1 0.6
21/11:48am 14.0 10.2 12.5 91 0.8 N 24 33 13 18 1016.3 - 0.6
21/11:46am 13.7 9.5 12.4 92 0.7 N 26 33 14 18 1016.4 - 0.6
21/11:30am 15.2 11.6 10.0 71 2.7 N 19 28 10 15 1016.4 - 0.2
21/11:00am 15.2 12.9 11.7 79 1.9 NNE 15 20 8 11 1016.8 - 0.2
21/10:30am 13.4 10.4 12.1 92 0.7 N 19 28 10 15 1017.3 - 0.0
21/10:00am 13.2 9.8 10.7 85 1.3 N 19 26 10 14 1017.8 - 0.0
21/09:30am 13.8 11.7 11.2 84 1.4 NNE 13 17 7 9 1017.4 - 0.0
21/09:00am 12.3 10.6 11.2 93 0.6 N 11 13 6 7 1017.3 1017.2 1.4
21/08:30am 11.6 9.8 11.0 96 0.3 NNE 11 15 6 8 1017.3 - 1.4
21/08:19am 11.5 9.8 11.1 97 0.2 NE 11 13 6 7 1017.1 - 1.4
21/08:00am 10.4 8.8 10.2 99 0.1 NE 9 11 5 6 1017.2 - 1.4
21/07:30am 9.1 7.2 8.9 99 0.1 NNE 9 11 5 6 1017.4 - 1.4
21/07:21am 9.1 7.2 8.9 99 0.1 NE 9 11 5 6 1017.3 - 1.4
21/07:10am 9.4 8.2 9.4 100 0.0 NNE 6 9 3 5 1017.3 - 1.4
21/07:00am 10.0 9.2 9.8 99 0.1 N 4 7 2 4 1017.3 - 1.4
21/06:30am 10.8 9.8 10.4 97 0.2 NNE 6 7 3 4 1017.1 - 1.4
21/06:00am 11.0 10.5 10.6 97 0.2 NE 4 7 2 4 1016.9 1016.8 1.4
21/05:49am 11.0 9.9 10.6 97 0.2 NE 7 9 4 5 1016.9 - 1.4
21/05:39am 11.1 9.7 10.9 99 0.1 NNE 9 13 5 7 1016.9 - 1.4
21/05:30am 11.1 9.6 10.7 97 0.2 NNE 9 13 5 7 1016.9 - 1.4
21/05:27am 11.1 9.3 10.7 97 0.2 NNE 11 13 6 7 1016.9 - 1.4
21/05:00am 11.1 10.2 10.7 97 0.2 ENE 6 9 3 5 1016.7 - 1.4
21/04:30am 11.0 10.1 10.6 97 0.2 ENE 6 9 3 5 1016.6 - 1.4
21/04:00am 11.0 9.1 10.6 97 0.2 NNE 11 15 6 8 1016.7 - 1.4
21/03:37am 11.3 9.8 10.7 96 0.3 N 9 11 5 6 1016.5 - 1.4
21/03:30am 11.3 10.2 10.7 96 0.3 NNW 7 11 4 6 1016.4 - 1.4
21/03:27am 11.4 10.3 10.8 96 0.3 WNW 7 9 4 5 1016.4 - 1.4
21/03:08am 10.8 9.8 10.4 97 0.2 NE 6 9 3 5 1016.4 - 1.4
21/03:00am 10.8 9.6 10.4 97 0.2 NNE 7 7 4 4 1016.4 1016.3 1.4
21/02:52am 10.7 10.5 10.3 97 0.2 NNE 2 7 1 4 1016.4 - 1.4
21/02:30am 10.8 9.3 10.4 97 0.2 N 9 11 5 6 1016.4 - 1.2
21/02:00am 10.7 9.1 10.3 97 0.2 N 9 13 5 7 1016.4 - 0.6
21/01:55am 10.7 9.1 10.1 96 0.3 N 9 11 5 6 1016.5 - 0.4
21/01:30am 10.0 9.1 9.4 96 0.3 ENE 4 6 2 3 1016.6 - 0.2
21/01:00am 9.9 9.4 9.3 96 0.3 N 2 6 1 3 1016.7 - 0.0
21/12:30am 9.1 7.6 8.3 95 0.4 NNE 6 9 3 5 1016.8 - 0.0
21/12:00am 8.3 6.0 7.4 94 0.4 NNE 9 11 5 6 1016.9 1016.8 0.0
 
Date/Time
WST
Temp
°C
App
Temp
°C
Dew
Point
Rel
Hum
%
Delta-T
°C
Wind Press
QNH
hPa
Press
MSL
hPa
Rain
since 9 am
mm
Dir
 
Spd
km/h
Gust
km/h
Spd
kts
Gust
kts
20/11:30pm 7.7 5.9 7.3 97 0.2 NNE 6 7 3 4 1017.3 - 0.0
20/11:00pm 6.9 4.7 6.2 95 0.3 NE 7 9 4 5 1017.3 - 0.0
20/10:30pm 7.1 5.6 6.7 97 0.2 NE 4 6 2 3 1017.6 - 0.0
20/10:00pm 6.9 5.0 6.5 97 0.2 E 6 7 3 4 1017.6 - 0.0
20/09:30pm 7.3 6.4 6.2 93 0.5 CALM 0 0 0 0 1017.3 - 0.0
20/09:00pm 8.5 7.9 7.4 93 0.5 CALM 0 2 0 1 1017.3 1017.2 0.0
20/08:30pm 8.2 6.2 7.3 94 0.4 E 7 7 4 4 1017.1 - 0.0
20/08:00pm 9.1 8.7 8.1 93 0.5 CALM 0 0 0 0 1016.8 - 0.0
20/07:30pm 9.4 8.8 7.5 88 0.9 CALM 0 0 0 0 1016.8 - 0.0
20/07:00pm 10.6 9.2 9.0 90 0.8 W 6 7 3 4 1016.5 - 0.0
20/06:30pm 11.1 9.4 8.2 82 1.4 WSW 7 7 4 4 1016.1 - 0.0
20/06:00pm 13.0 11.5 9.2 78 1.9 W 7 9 4 5 1015.7 1015.6 0.0
20/05:30pm 14.5 13.1 9.7 73 2.5 WSW 7 9 4 5 1015.4 - 0.0
20/05:00pm 15.5 13.1 8.8 64 3.4 WSW 11 15 6 8 1015.2 - 0.0
20/04:30pm 16.0 12.6 7.8 58 4.1 WSW 15 19 8 10 1014.8 - 0.0
20/04:00pm 16.3 12.6 8.0 58 4.2 WSW 17 20 9 11 1014.5 - 0.0
20/03:30pm 16.8 13.1 8.1 56 4.4 WSW 17 24 9 13 1014.2 - 0.0
20/03:00pm 16.8 13.1 8.1 56 4.4 WSW 17 24 9 13 1014.0 1013.9 0.0
20/02:30pm 16.6 12.5 8.6 59 4.1 WSW 20 28 11 15 1013.7 - 0.0
20/02:00pm 16.9 12.9 9.0 59 4.1 WSW 20 26 11 14 1013.4 - 0.0
20/01:30pm 16.7 13.9 8.7 59 4.1 SW 13 22 7 12 1013.3 - 0.0
20/01:00pm 16.7 14.4 10.3 66 3.4 S 13 20 7 11 1013.3 - 0.0
20/12:30pm 15.5 13.6 10.4 71 2.7 SW 11 17 6 9 1013.5 - 0.0
20/12:00pm 15.6 13.5 9.9 69 3.0 SSW 11 20 6 11 1013.5 1013.4 0.0
20/11:30am 15.4 12.9 9.6 68 3.0 SW 13 20 7 11 1013.8 - 0.0
20/11:00am 14.9 12.8 9.9 72 2.6 SSE 11 15 6 8 1013.9 - 0.0
20/10:30am 14.3 12.5 9.6 73 2.4 ESE 9 13 5 7 1013.9 - 0.0
20/10:00am 13.6 12.0 10.1 79 1.8 E 9 11 5 6 1013.9 - 0.0

Other Formats:

Comma delimited format used in spreadsheet applications
http://www.bom.gov.au/fwo/IDW60801/IDW60801.94609.axf

JavaScript Object Notation format (JSON) in row-major order
http://www.bom.gov.au/fwo/IDW60801/IDW60801.94609.json